sensor_id;sensor_type;location;lat;lon;timestamp;pressure;altitude;pressure_sealevel;temperature;humidity
11017;BME280;54687;50.800;6.772;2023-02-18T00:01:26;61084.53;;;-144.06;62.21
11017;BME280;54687;50.800;6.772;2023-02-18T00:03:54;61107.59;;;-144.06;62.22
11017;BME280;54687;50.800;6.772;2023-02-18T00:06:23;61063.56;;;-144.06;62.34
11017;BME280;54687;50.800;6.772;2023-02-18T00:08:50;61084.53;;;-144.06;62.27
11017;BME280;54687;50.800;6.772;2023-02-18T00:11:20;61097.09;;;-144.06;62.45
11017;BME280;54687;50.800;6.772;2023-02-18T00:13:50;61118.06;;;-144.06;62.49
11017;BME280;54687;50.800;6.772;2023-02-18T00:16:17;61078.25;;;-144.06;62.45
11017;BME280;54687;50.800;6.772;2023-02-18T00:18:44;61113.88;;;-144.06;62.34
11017;BME280;54687;50.800;6.772;2023-02-18T00:21:10;61092.91;;;-144.06;62.32
11017;BME280;54687;50.800;6.772;2023-02-18T00:23:37;61101.28;;;-144.06;62.37
11017;BME280;54687;50.800;6.772;2023-02-18T00:26:06;61097.09;;;-144.06;62.53
11017;BME280;54687;50.800;6.772;2023-02-18T00:28:34;61078.25;;;-144.06;62.79
11017;BME280;54687;50.800;6.772;2023-02-18T00:31:05;61099.19;;;-144.06;62.60
11017;BME280;54687;50.800;6.772;2023-02-18T00:33:32;61084.53;;;-144.06;62.59
11017;BME280;54687;50.800;6.772;2023-02-18T00:36:01;61124.34;;;-144.06;62.45
11017;BME280;54687;50.800;6.772;2023-02-18T00:38:27;61071.94;;;-144.06;62.51
11017;BME280;54687;50.800;6.772;2023-02-18T00:40:54;61113.88;;;-144.06;62.56
11017;BME280;54687;50.800;6.772;2023-02-18T00:43:21;61105.50;;;-144.06;62.29
11017;BME280;54687;50.800;6.772;2023-02-18T00:45:49;61088.72;;;-144.06;62.46
11017;BME280;54687;50.800;6.772;2023-02-18T00:48:15;61095.00;;;-144.06;62.37
11017;BME280;54687;50.800;6.772;2023-02-18T00:50:42;61063.56;;;-144.06;62.32
11017;BME280;54687;50.800;6.772;2023-02-18T00:53:09;61080.34;;;-144.06;62.44
11017;BME280;54687;50.800;6.772;2023-02-18T00:55:38;61084.53;;;-144.06;62.39
11017;BME280;54687;50.800;6.772;2023-02-18T00:58:04;61086.63;;;-144.06;62.65
11017;BME280;54687;50.800;6.772;2023-02-18T01:00:31;61080.34;;;-144.06;62.49
11017;BME280;54687;50.800;6.772;2023-02-18T01:02:59;61078.25;;;-144.06;62.70
11017;BME280;54687;50.800;6.772;2023-02-18T01:05:25;61155.81;;;-144.06;62.56
11017;BME280;54687;50.800;6.772;2023-02-18T01:07:52;61046.78;;;-144.06;62.74
11017;BME280;54687;50.800;6.772;2023-02-18T01:10:19;61076.13;;;-144.06;62.74
11017;BME280;54687;50.800;6.772;2023-02-18T01:12:46;61051.00;;;-144.06;62.88
11017;BME280;54687;50.800;6.772;2023-02-18T01:15:14;61071.94;;;-144.06;62.91
11017;BME280;54687;50.800;6.772;2023-02-18T01:17:40;61092.91;;;-144.06;62.88
11017;BME280;54687;50.800;6.772;2023-02-18T01:20:10;61067.75;;;-144.06;62.94
11017;BME280;54687;50.800;6.772;2023-02-18T01:22:37;61063.56;;;-144.06;62.99
11017;BME280;54687;50.800;6.772;2023-02-18T01:25:04;61126.44;;;-144.06;62.83
11017;BME280;54687;50.800;6.772;2023-02-18T01:27:30;61067.75;;;-144.06;62.92
11017;BME280;54687;50.800;6.772;2023-02-18T01:29:58;61113.88;;;-144.06;62.91
11017;BME280;54687;50.800;6.772;2023-02-18T01:32:24;61084.53;;;-144.06;63.08
11017;BME280;54687;50.800;6.772;2023-02-18T01:34:51;61067.75;;;-144.06;63.14
11017;BME280;54687;50.800;6.772;2023-02-18T01:37:19;61099.19;;;-144.06;63.08
11017;BME280;54687;50.800;6.772;2023-02-18T01:39:46;61113.88;;;-144.06;63.37
11017;BME280;54687;50.800;6.772;2023-02-18T01:42:18;61076.13;;;-144.06;63.24
11017;BME280;54687;50.800;6.772;2023-02-18T01:44:45;61118.06;;;-144.06;63.20
11017;BME280;54687;50.800;6.772;2023-02-18T01:47:13;61040.50;;;-144.06;63.36
11017;BME280;54687;50.800;6.772;2023-02-18T01:49:40;61071.94;;;-144.06;63.20
11017;BME280;54687;50.800;6.772;2023-02-18T01:52:12;61067.75;;;-144.06;63.16
11017;BME280;54687;50.800;6.772;2023-02-18T01:54:44;61105.50;;;-144.06;63.00
11017;BME280;54687;50.800;6.772;2023-02-18T01:57:14;61080.34;;;-144.06;63.10
11017;BME280;54687;50.800;6.772;2023-02-18T01:59:45;61059.38;;;-144.06;63.35
11017;BME280;54687;50.800;6.772;2023-02-18T02:02:16;61122.25;;;-144.06;63.39
11017;BME280;54687;50.800;6.772;2023-02-18T02:04:43;61120.16;;;-144.06;63.44
11017;BME280;54687;50.800;6.772;2023-02-18T02:07:11;61122.25;;;-144.06;63.39
11017;BME280;54687;50.800;6.772;2023-02-18T02:09:38;61097.09;;;-144.06;63.25
11017;BME280;54687;50.800;6.772;2023-02-18T02:12:23;61095.00;;;-144.06;63.21
11017;BME280;54687;50.800;6.772;2023-02-18T02:18:05;61080.34;;;-144.06;63.11
11017;BME280;54687;50.800;6.772;2023-02-18T02:21:00;61053.09;;;-144.06;63.23
11017;BME280;54687;50.800;6.772;2023-02-18T02:23:45;61092.91;;;-144.06;63.23
11017;BME280;54687;50.800;6.772;2023-02-18T02:33:11;61113.88;;;-144.06;63.25
11017;BME280;54687;50.800;6.772;2023-02-18T02:35:51;61084.53;;;-144.06;63.14
11017;BME280;54687;50.800;6.772;2023-02-18T02:38:24;61092.91;;;-144.06;63.02
11017;BME280;54687;50.800;6.772;2023-02-18T02:41:01;61101.28;;;-144.06;62.88
11017;BME280;54687;50.800;6.772;2023-02-18T02:43:39;61082.44;;;-144.06;62.82
11017;BME280;54687;50.800;6.772;2023-02-18T02:46:12;61095.00;;;-144.06;62.83
11017;BME280;54687;50.800;6.772;2023-02-18T02:48:44;61097.09;;;-144.06;62.83
11017;BME280;54687;50.800;6.772;2023-02-18T02:51:19;61080.34;;;-144.06;62.78
11017;BME280;54687;50.800;6.772;2023-02-18T02:53:50;61097.09;;;-144.06;62.69
11017;BME280;54687;50.800;6.772;2023-02-18T02:56:17;61090.81;;;-144.06;62.70
11017;BME280;54687;50.800;6.772;2023-02-18T02:58:46;61080.34;;;-144.06;62.71
11017;BME280;54687;50.800;6.772;2023-02-18T03:01:26;61063.56;;;-144.06;62.66
11017;BME280;54687;50.800;6.772;2023-02-18T03:07:12;61097.09;;;-144.06;62.66
11017;BME280;54687;50.800;6.772;2023-02-18T03:09:51;61069.84;;;-144.06;62.67
11017;BME280;54687;50.800;6.772;2023-02-18T03:12:29;61074.03;;;-144.06;62.56
11017;BME280;54687;50.800;6.772;2023-02-18T03:15:13;61061.47;;;-144.06;62.48
11017;BME280;54687;50.800;6.772;2023-02-18T03:17:48;61059.38;;;-144.06;62.50
11017;BME280;54687;50.800;6.772;2023-02-18T03:20:22;61092.91;;;-144.06;62.43
11017;BME280;54687;50.800;6.772;2023-02-18T03:22:53;61067.75;;;-144.06;62.55
11017;BME280;54687;50.800;6.772;2023-02-18T03:25:22;61107.59;;;-144.06;62.44
11017;BME280;54687;50.800;6.772;2023-02-18T03:27:51;61034.22;;;-144.06;62.32
11017;BME280;54687;50.800;6.772;2023-02-18T03:30:22;61071.94;;;-144.06;62.27
11017;BME280;54687;50.800;6.772;2023-02-18T03:32:52;61042.59;;;-144.06;62.31
11017;BME280;54687;50.800;6.772;2023-02-18T03:35:21;61051.00;;;-144.06;62.09
11017;BME280;54687;50.800;6.772;2023-02-18T03:37:51;61076.13;;;-144.06;62.15
11017;BME280;54687;50.800;6.772;2023-02-18T03:40:21;61111.78;;;-144.06;62.20
11017;BME280;54687;50.800;6.772;2023-02-18T03:42:47;61101.28;;;-144.06;62.00
11017;BME280;54687;50.800;6.772;2023-02-18T03:45:14;61078.25;;;-144.06;62.00
11017;BME280;54687;50.800;6.772;2023-02-18T03:47:41;61076.13;;;-144.06;61.93
11017;BME280;54687;50.800;6.772;2023-02-18T03:50:08;61078.25;;;-144.06;61.95
11017;BME280;54687;50.800;6.772;2023-02-18T03:52:34;61134.84;;;-144.06;61.70
11017;BME280;54687;50.800;6.772;2023-02-18T03:55:01;61103.38;;;-144.06;61.83
11017;BME280;54687;50.800;6.772;2023-02-18T03:57:29;61061.47;;;-144.06;61.71
11017;BME280;54687;50.800;6.772;2023-02-18T03:59:56;61113.88;;;-144.06;61.66
11017;BME280;54687;50.800;6.772;2023-02-18T04:02:23;61092.91;;;-144.06;61.75
11017;BME280;54687;50.800;6.772;2023-02-18T04:04:49;61055.19;;;-144.06;61.79
11017;BME280;54687;50.800;6.772;2023-02-18T04:07:16;61090.81;;;-144.06;61.61
11017;BME280;54687;50.800;6.772;2023-02-18T04:09:42;61080.34;;;-144.06;61.68
11017;BME280;54687;50.800;6.772;2023-02-18T04:12:09;61071.94;;;-144.06;61.65
11017;BME280;54687;50.800;6.772;2023-02-18T04:14:37;61084.53;;;-144.06;61.63
11017;BME280;54687;50.800;6.772;2023-02-18T04:17:03;61069.84;;;-144.06;61.62
11017;BME280;54687;50.800;6.772;2023-02-18T04:19:30;61099.19;;;-144.06;61.55
11017;BME280;54687;50.800;6.772;2023-02-18T04:21:57;61095.00;;;-144.06;61.68
11017;BME280;54687;50.800;6.772;2023-02-18T04:24:23;61074.03;;;-144.06;61.88
11017;BME280;54687;50.800;6.772;2023-02-18T04:26:50;61105.50;;;-144.06;62.07
11017;BME280;54687;50.800;6.772;2023-02-18T04:29:16;61097.09;;;-144.06;62.43
11017;BME280;54687;50.800;6.772;2023-02-18T04:31:44;61040.50;;;-144.06;62.74
11017;BME280;54687;50.800;6.772;2023-02-18T04:34:11;61107.59;;;-144.06;62.98
11017;BME280;54687;50.800;6.772;2023-02-18T04:36:38;61080.34;;;-144.06;63.20
11017;BME280;54687;50.800;6.772;2023-02-18T04:39:05;61109.69;;;-144.06;62.95
11017;BME280;54687;50.800;6.772;2023-02-18T04:41:31;61061.47;;;-144.06;62.99
11017;BME280;54687;50.800;6.772;2023-02-18T04:43:58;61063.56;;;-144.06;62.71
11017;BME280;54687;50.800;6.772;2023-02-18T04:46:24;61063.56;;;-144.06;62.44
11017;BME280;54687;50.800;6.772;2023-02-18T04:48:52;61067.75;;;-144.06;62.57
11017;BME280;54687;50.800;6.772;2023-02-18T04:51:19;61111.78;;;-144.06;62.37
11017;BME280;54687;50.800;6.772;2023-02-18T04:53:45;61092.91;;;-144.06;62.27
11017;BME280;54687;50.800;6.772;2023-02-18T04:56:12;61063.56;;;-144.06;62.22
11017;BME280;54687;50.800;6.772;2023-02-18T04:58:39;61143.22;;;-144.06;62.37
11017;BME280;54687;50.800;6.772;2023-02-18T05:01:05;61080.34;;;-144.06;62.39
11017;BME280;54687;50.800;6.772;2023-02-18T05:03:32;61109.69;;;-144.06;62.17
11017;BME280;54687;50.800;6.772;2023-02-18T05:06:00;61057.28;;;-144.06;62.32
11017;BME280;54687;50.800;6.772;2023-02-18T05:08:27;61067.75;;;-144.06;62.34
11017;BME280;54687;50.800;6.772;2023-02-18T05:10:54;61113.88;;;-144.06;62.20
11017;BME280;54687;50.800;6.772;2023-02-18T05:13:21;61113.88;;;-144.06;62.44
11017;BME280;54687;50.800;6.772;2023-02-18T05:15:47;61080.34;;;-144.06;62.44
11017;BME280;54687;50.800;6.772;2023-02-18T05:18:14;61086.63;;;-144.06;62.26
11017;BME280;54687;50.800;6.772;2023-02-18T05:20:41;61126.44;;;-144.06;62.20
11017;BME280;54687;50.800;6.772;2023-02-18T05:23:10;61025.84;;;-144.06;62.07
11017;BME280;54687;50.800;6.772;2023-02-18T05:25:36;61132.75;;;-144.06;62.13
11017;BME280;54687;50.800;6.772;2023-02-18T05:28:03;61076.13;;;-144.06;62.13
11017;BME280;54687;50.800;6.772;2023-02-18T05:30:30;61076.13;;;-144.06;62.23
11017;BME280;54687;50.800;6.772;2023-02-18T05:32:56;61095.00;;;-144.06;61.99
11017;BME280;54687;50.800;6.772;2023-02-18T05:35:23;61076.13;;;-144.06;62.17
11017;BME280;54687;50.800;6.772;2023-02-18T05:37:49;61067.75;;;-144.06;62.12
11017;BME280;54687;50.800;6.772;2023-02-18T05:40:18;61076.13;;;-144.06;62.20
11017;BME280;54687;50.800;6.772;2023-02-18T05:42:44;61076.13;;;-144.06;62.29
11017;BME280;54687;50.800;6.772;2023-02-18T05:45:11;61080.34;;;-144.06;62.44
11017;BME280;54687;50.800;6.772;2023-02-18T05:47:37;61051.00;;;-144.06;62.39
11017;BME280;54687;50.800;6.772;2023-02-18T05:50:06;61095.00;;;-144.06;62.41
11017;BME280;54687;50.800;6.772;2023-02-18T05:52:33;61103.38;;;-144.06;62.37
11017;BME280;54687;50.800;6.772;2023-02-18T05:54:59;61069.84;;;-144.06;61.92
11017;BME280;54687;50.800;6.772;2023-02-18T05:57:27;61105.50;;;-144.06;61.89
11017;BME280;54687;50.800;6.772;2023-02-18T05:59:54;61074.03;;;-144.06;61.67
11017;BME280;54687;50.800;6.772;2023-02-18T06:02:21;61139.03;;;-144.06;61.31
11017;BME280;54687;50.800;6.772;2023-02-18T06:04:47;61084.53;;;-144.06;61.42
11017;BME280;54687;50.800;6.772;2023-02-18T06:07:14;61097.09;;;-144.06;61.17
11017;BME280;54687;50.800;6.772;2023-02-18T06:09:40;61084.53;;;-144.06;61.25
11017;BME280;54687;50.800;6.772;2023-02-18T06:12:07;61122.25;;;-144.06;61.28
11017;BME280;54687;50.800;6.772;2023-02-18T06:14:36;61080.34;;;-144.06;61.15
11017;BME280;54687;50.800;6.772;2023-02-18T06:17:06;61124.34;;;-144.06;60.92
11017;BME280;54687;50.800;6.772;2023-02-18T06:19:32;61122.25;;;-144.06;60.76
11017;BME280;54687;50.800;6.772;2023-02-18T06:21:59;61095.00;;;-144.06;60.89
11017;BME280;54687;50.800;6.772;2023-02-18T06:24:26;61067.75;;;-144.06;60.71
11017;BME280;54687;50.800;6.772;2023-02-18T06:26:52;61097.09;;;-144.06;60.44
11017;BME280;54687;50.800;6.772;2023-02-18T06:29:19;61067.75;;;-144.06;60.58
11017;BME280;54687;50.800;6.772;2023-02-18T06:31:47;61084.53;;;-144.06;60.54
11017;BME280;54687;50.800;6.772;2023-02-18T06:34:14;61101.28;;;-144.06;60.68
11017;BME280;54687;50.800;6.772;2023-02-18T06:36:40;61071.94;;;-144.06;60.72
11017;BME280;54687;50.800;6.772;2023-02-18T06:39:07;61071.94;;;-144.06;60.55
11017;BME280;54687;50.800;6.772;2023-02-18T06:41:34;61086.63;;;-144.06;60.33
11017;BME280;54687;50.800;6.772;2023-02-18T06:44:00;61086.63;;;-144.06;60.07
11017;BME280;54687;50.800;6.772;2023-02-18T06:46:27;61113.88;;;-144.06;60.28
11017;BME280;54687;50.800;6.772;2023-02-18T06:48:55;61088.72;;;-144.06;60.31
11017;BME280;54687;50.800;6.772;2023-02-18T06:51:22;61084.53;;;-144.06;60.38
11017;BME280;54687;50.800;6.772;2023-02-18T06:53:48;61063.56;;;-144.06;60.53
11017;BME280;54687;50.800;6.772;2023-02-18T06:56:15;61109.69;;;-144.06;60.22
11017;BME280;54687;50.800;6.772;2023-02-18T06:58:42;61051.00;;;-144.06;59.84
11017;BME280;54687;50.800;6.772;2023-02-18T07:01:08;61109.69;;;-144.06;59.67
11017;BME280;54687;50.800;6.772;2023-02-18T07:03:35;61101.28;;;-144.06;59.63
11017;BME280;54687;50.800;6.772;2023-02-18T07:06:03;61120.16;;;-144.06;59.57
11017;BME280;54687;50.800;6.772;2023-02-18T07:08:30;61095.00;;;-144.06;59.40
11017;BME280;54687;50.800;6.772;2023-02-18T07:11:00;61059.38;;;-144.06;59.21
11017;BME280;54687;50.800;6.772;2023-02-18T07:13:27;61057.28;;;-144.06;58.90
11017;BME280;54687;50.800;6.772;2023-02-18T07:15:54;61067.75;;;-144.06;58.86
11017;BME280;54687;50.800;6.772;2023-02-18T07:18:20;61057.28;;;-144.06;59.06
11017;BME280;54687;50.800;6.772;2023-02-18T07:20:47;61139.03;;;-144.06;58.96
11017;BME280;54687;50.800;6.772;2023-02-18T07:23:15;61057.28;;;-144.06;58.97
11017;BME280;54687;50.800;6.772;2023-02-18T07:25:41;61074.03;;;-144.06;59.07
11017;BME280;54687;50.800;6.772;2023-02-18T07:28:08;61105.50;;;-144.06;58.87
11017;BME280;54687;50.800;6.772;2023-02-18T07:30:34;61090.81;;;-144.06;58.56
11017;BME280;54687;50.800;6.772;2023-02-18T07:33:01;61080.34;;;-144.06;58.67
11017;BME280;54687;50.800;6.772;2023-02-18T07:35:27;61082.44;;;-144.06;58.44
11017;BME280;54687;50.800;6.772;2023-02-18T07:37:54;61124.34;;;-144.06;58.79
11017;BME280;54687;50.800;6.772;2023-02-18T07:40:23;61059.38;;;-144.06;58.95
11017;BME280;54687;50.800;6.772;2023-02-18T07:42:50;61067.75;;;-144.06;58.28
11017;BME280;54687;50.800;6.772;2023-02-18T07:45:16;61038.41;;;-144.06;58.03
11017;BME280;54687;50.800;6.772;2023-02-18T07:47:43;61076.13;;;-144.06;58.96
11017;BME280;54687;50.800;6.772;2023-02-18T07:50:10;61141.13;;;-144.06;59.75
11017;BME280;54687;50.800;6.772;2023-02-18T07:52:37;61090.81;;;-144.06;58.77
11017;BME280;54687;50.800;6.772;2023-02-18T07:55:04;61092.91;;;-144.06;58.56
11017;BME280;54687;50.800;6.772;2023-02-18T07:57:32;61092.91;;;-144.06;58.27
11017;BME280;54687;50.800;6.772;2023-02-18T08:00:19;61095.00;;;-144.06;58.15
11017;BME280;54687;50.800;6.772;2023-02-18T08:02:46;61048.88;;;-144.06;58.42
11017;BME280;54687;50.800;6.772;2023-02-18T08:05:12;61065.66;;;-144.06;57.90
11017;BME280;54687;50.800;6.772;2023-02-18T08:07:39;61088.72;;;-144.06;57.70
11017;BME280;54687;50.800;6.772;2023-02-18T08:10:06;61080.34;;;-144.06;57.32
11017;BME280;54687;50.800;6.772;2023-02-18T08:12:34;61088.72;;;-144.06;56.85
11017;BME280;54687;50.800;6.772;2023-02-18T08:15:01;61101.28;;;-144.06;57.00
11017;BME280;54687;50.800;6.772;2023-02-18T08:17:27;61097.09;;;-144.06;56.64
11017;BME280;54687;50.800;6.772;2023-02-18T08:19:54;61095.00;;;-144.06;56.35
11017;BME280;54687;50.800;6.772;2023-02-18T08:22:20;61082.44;;;-144.06;56.34
11017;BME280;54687;50.800;6.772;2023-02-18T08:24:47;61059.38;;;-144.06;56.07
11017;BME280;54687;50.800;6.772;2023-02-18T08:27:13;61107.59;;;-144.06;55.25
11017;BME280;54687;50.800;6.772;2023-02-18T08:29:41;61092.91;;;-144.06;55.14
11017;BME280;54687;50.800;6.772;2023-02-18T08:32:08;61113.88;;;-144.06;54.50
11017;BME280;54687;50.800;6.772;2023-02-18T08:34:34;61088.72;;;-144.06;54.41
11017;BME280;54687;50.800;6.772;2023-02-18T08:37:01;61065.66;;;-144.06;54.39
11017;BME280;54687;50.800;6.772;2023-02-18T08:39:28;61032.13;;;-144.06;53.57
11017;BME280;54687;50.800;6.772;2023-02-18T08:41:58;61105.50;;;-144.06;54.27
11017;BME280;54687;50.800;6.772;2023-02-18T08:44:25;61046.78;;;-144.06;54.33
11017;BME280;54687;50.800;6.772;2023-02-18T08:46:53;61090.81;;;-144.06;54.00
11017;BME280;54687;50.800;6.772;2023-02-18T08:49:20;61097.09;;;-144.06;53.96
11017;BME280;54687;50.800;6.772;2023-02-18T08:51:48;61067.75;;;-144.06;53.91
11017;BME280;54687;50.800;6.772;2023-02-18T08:54:15;61080.34;;;-144.06;53.39
11017;BME280;54687;50.800;6.772;2023-02-18T08:56:41;61067.75;;;-144.06;53.64
11017;BME280;54687;50.800;6.772;2023-02-18T08:59:08;61105.50;;;-144.06;53.88
11017;BME280;54687;50.800;6.772;2023-02-18T09:01:35;61080.34;;;-144.06;53.96
11017;BME280;54687;50.800;6.772;2023-02-18T09:04:03;61101.28;;;-144.06;53.61
11017;BME280;54687;50.800;6.772;2023-02-18T09:06:30;61090.81;;;-144.06;53.20
11017;BME280;54687;50.800;6.772;2023-02-18T09:08:56;61069.84;;;-144.06;53.03
11017;BME280;54687;50.800;6.772;2023-02-18T09:11:23;61065.66;;;-144.06;52.72
11017;BME280;54687;50.800;6.772;2023-02-18T09:13:50;61067.75;;;-144.06;53.38
11017;BME280;54687;50.800;6.772;2023-02-18T09:16:17;61032.13;;;-144.06;53.42
11017;BME280;54687;50.800;6.772;2023-02-18T09:18:44;61061.47;;;-144.06;53.15
11017;BME280;54687;50.800;6.772;2023-02-18T09:21:14;61009.06;;;-144.06;53.26
11017;BME280;54687;50.800;6.772;2023-02-18T09:23:42;61069.84;;;-144.06;53.32
11017;BME280;54687;50.800;6.772;2023-02-18T09:26:13;61059.38;;;-144.06;53.16
11017;BME280;54687;50.800;6.772;2023-02-18T09:28:40;61071.94;;;-144.06;53.20
11017;BME280;54687;50.800;6.772;2023-02-18T09:31:09;61061.47;;;-144.06;53.24
11017;BME280;54687;50.800;6.772;2023-02-18T09:33:38;61067.75;;;-144.06;53.21
11017;BME280;54687;50.800;6.772;2023-02-18T09:36:06;61107.59;;;-144.06;53.06
11017;BME280;54687;50.800;6.772;2023-02-18T09:38:34;61040.50;;;-144.06;52.80
11017;BME280;54687;50.800;6.772;2023-02-18T09:41:03;61009.06;;;-144.06;52.61
11017;BME280;54687;50.800;6.772;2023-02-18T09:43:33;61042.59;;;-144.06;52.52
11017;BME280;54687;50.800;6.772;2023-02-18T09:46:01;61034.22;;;-144.06;52.38
11017;BME280;54687;50.800;6.772;2023-02-18T09:48:31;61038.41;;;-144.06;51.93
11017;BME280;54687;50.800;6.772;2023-02-18T09:50:58;61080.34;;;-144.06;51.55
11017;BME280;54687;50.800;6.772;2023-02-18T09:53:26;61023.75;;;-144.06;51.79
11017;BME280;54687;50.800;6.772;2023-02-18T09:55:56;61061.47;;;-144.06;51.68
11017;BME280;54687;50.800;6.772;2023-02-18T09:58:24;61034.22;;;-144.06;51.16
11017;BME280;54687;50.800;6.772;2023-02-18T10:01:04;61013.25;;;-144.06;50.59
11017;BME280;54687;50.800;6.772;2023-02-18T10:03:32;61013.25;;;-144.06;51.04
11017;BME280;54687;50.800;6.772;2023-02-18T10:06:03;61023.75;;;-144.06;51.31
11017;BME280;54687;50.800;6.772;2023-02-18T10:08:34;61002.78;;;-144.06;51.71
11017;BME280;54687;50.800;6.772;2023-02-18T10:11:03;61055.19;;;-144.06;51.80
11017;BME280;54687;50.800;6.772;2023-02-18T10:13:37;61046.78;;;-144.06;52.24
11017;BME280;54687;50.800;6.772;2023-02-18T10:16:04;61057.28;;;-144.06;52.36
11017;BME280;54687;50.800;6.772;2023-02-18T10:18:35;61061.47;;;-144.06;52.66
11017;BME280;54687;50.800;6.772;2023-02-18T10:21:06;61086.63;;;-144.06;52.76
11017;BME280;54687;50.800;6.772;2023-02-18T10:23:37;61067.75;;;-144.06;52.82
11017;BME280;54687;50.800;6.772;2023-02-18T10:26:09;61038.41;;;-144.06;53.05
11017;BME280;54687;50.800;6.772;2023-02-18T10:28:37;61063.56;;;-144.06;53.02
11017;BME280;54687;50.800;6.772;2023-02-18T10:31:07;61069.84;;;-144.06;53.09
11017;BME280;54687;50.800;6.772;2023-02-18T10:33:37;61025.84;;;-144.06;53.42
11017;BME280;54687;50.800;6.772;2023-02-18T10:36:17;61053.09;;;-144.06;53.49
11017;BME280;54687;50.800;6.772;2023-02-18T10:39:06;61057.28;;;-144.06;53.08
11017;BME280;54687;50.800;6.772;2023-02-18T10:41:44;61046.78;;;-144.06;53.16
11017;BME280;54687;50.800;6.772;2023-02-18T10:44:21;61055.19;;;-144.06;53.59
11017;BME280;54687;50.800;6.772;2023-02-18T10:46:55;61053.09;;;-144.06;53.47
11017;BME280;54687;50.800;6.772;2023-02-18T10:49:39;61109.69;;;-144.06;53.55
11017;BME280;54687;50.800;6.772;2023-02-18T10:52:13;61101.28;;;-144.06;53.74
11017;BME280;54687;50.800;6.772;2023-02-18T10:54:50;61055.19;;;-144.06;53.71
11017;BME280;54687;50.800;6.772;2023-02-18T10:57:20;61063.56;;;-144.06;53.70
11017;BME280;54687;50.800;6.772;2023-02-18T10:59:58;61118.06;;;-144.06;54.33
11017;BME280;54687;50.800;6.772;2023-02-18T11:02:27;61055.19;;;-144.06;54.71
11017;BME280;54687;50.800;6.772;2023-02-18T11:04:56;61055.19;;;-144.06;54.69
11017;BME280;54687;50.800;6.772;2023-02-18T11:07:28;61057.28;;;-144.06;54.45
11017;BME280;54687;50.800;6.772;2023-02-18T11:09:57;61063.56;;;-144.06;54.96
11017;BME280;54687;50.800;6.772;2023-02-18T11:12:29;61040.50;;;-144.06;56.59
11017;BME280;54687;50.800;6.772;2023-02-18T11:15:05;61042.59;;;-144.06;57.98
11017;BME280;54687;50.800;6.772;2023-02-18T11:17:33;61069.84;;;-144.06;58.30
11017;BME280;54687;50.800;6.772;2023-02-18T11:20:04;61059.38;;;-144.06;58.08
11017;BME280;54687;50.800;6.772;2023-02-18T11:22:45;61071.94;;;-144.06;57.30
11017;BME280;54687;50.800;6.772;2023-02-18T11:25:19;61080.34;;;-144.06;57.54
11017;BME280;54687;50.800;6.772;2023-02-18T11:27:49;61071.94;;;-144.06;58.03
11017;BME280;54687;50.800;6.772;2023-02-18T11:30:19;61071.94;;;-144.06;58.14
11017;BME280;54687;50.800;6.772;2023-02-18T11:32:48;61086.63;;;-144.06;57.56
11017;BME280;54687;50.800;6.772;2023-02-18T11:35:18;61057.28;;;-144.06;57.51
11017;BME280;54687;50.800;6.772;2023-02-18T11:37:46;61074.03;;;-144.06;57.24
11017;BME280;54687;50.800;6.772;2023-02-18T11:40:19;61092.91;;;-144.06;56.96
11017;BME280;54687;50.800;6.772;2023-02-18T11:42:48;61111.78;;;-144.06;57.07
11017;BME280;54687;50.800;6.772;2023-02-18T11:45:26;61067.75;;;-144.06;57.06
11017;BME280;54687;50.800;6.772;2023-02-18T11:47:58;61088.72;;;-144.06;57.94
11017;BME280;54687;50.800;6.772;2023-02-18T11:50:29;61069.84;;;-144.06;58.15
11017;BME280;54687;50.800;6.772;2023-02-18T11:52:57;61063.56;;;-144.06;58.62
11017;BME280;54687;50.800;6.772;2023-02-18T11:55:26;61065.66;;;-144.06;59.22
11017;BME280;54687;50.800;6.772;2023-02-18T11:57:58;61078.25;;;-144.06;59.90
11017;BME280;54687;50.800;6.772;2023-02-18T12:00:36;61080.34;;;-144.06;59.67
11017;BME280;54687;50.800;6.772;2023-02-18T12:03:22;61084.53;;;-144.06;59.35
11017;BME280;54687;50.800;6.772;2023-02-18T12:06:04;61105.50;;;-144.06;59.57
11017;BME280;54687;50.800;6.772;2023-02-18T12:08:44;61097.09;;;-144.06;59.93
11017;BME280;54687;50.800;6.772;2023-02-18T12:11:17;61067.75;;;-144.06;60.26
11017;BME280;54687;50.800;6.772;2023-02-18T12:13:50;61099.19;;;-144.06;59.95
11017;BME280;54687;50.800;6.772;2023-02-18T12:16:25;61071.94;;;-144.06;59.82
11017;BME280;54687;50.800;6.772;2023-02-18T12:19:17;61082.44;;;-144.06;59.60
11017;BME280;54687;50.800;6.772;2023-02-18T12:21:56;61071.94;;;-144.06;59.27
11017;BME280;54687;50.800;6.772;2023-02-18T12:24:35;61053.09;;;-144.06;58.78
11017;BME280;54687;50.800;6.772;2023-02-18T12:27:11;61092.91;;;-144.06;58.98
11017;BME280;54687;50.800;6.772;2023-02-18T12:30:02;61118.06;;;-144.06;59.01
11017;BME280;54687;50.800;6.772;2023-02-18T12:32:40;61082.44;;;-144.06;58.86
11017;BME280;54687;50.800;6.772;2023-02-18T12:35:24;61030.03;;;-144.06;59.15
11017;BME280;54687;50.800;6.772;2023-02-18T12:38:09;61109.69;;;-144.06;59.22
11017;BME280;54687;50.800;6.772;2023-02-18T12:40:57;61065.66;;;-144.06;59.79
11017;BME280;54687;50.800;6.772;2023-02-18T12:43:35;61101.28;;;-144.06;59.13
11017;BME280;54687;50.800;6.772;2023-02-18T12:46:21;61046.78;;;-144.06;58.48
11017;BME280;54687;50.800;6.772;2023-02-18T12:48:58;61101.28;;;-144.06;58.71
11017;BME280;54687;50.800;6.772;2023-02-18T12:51:37;61092.91;;;-144.06;58.69
11017;BME280;54687;50.800;6.772;2023-02-18T12:54:28;61097.09;;;-144.06;58.98
11017;BME280;54687;50.800;6.772;2023-02-18T12:57:06;61067.75;;;-144.06;59.65
11017;BME280;54687;50.800;6.772;2023-02-18T12:59:58;61080.34;;;-144.06;59.67
11017;BME280;54687;50.800;6.772;2023-02-18T13:05:27;61063.56;;;-144.06;59.41
11017;BME280;54687;50.800;6.772;2023-02-18T13:08:06;61101.28;;;-144.06;59.05
11017;BME280;54687;50.800;6.772;2023-02-18T13:11:03;61051.00;;;-144.06;58.66